createdAt,value
2023-02-03T00:00:09.705Z,18.57
2023-02-03T00:01:10.496Z,18.61
2023-02-03T00:02:12.405Z,18.61
2023-02-03T00:03:14.263Z,18.60
2023-02-03T00:04:16.134Z,18.57
2023-02-03T00:05:17.941Z,18.57
2023-02-03T00:06:19.749Z,18.56
2023-02-03T00:07:20.493Z,18.56
2023-02-03T00:08:22.035Z,18.57
2023-02-03T00:09:23.851Z,18.61
2023-02-03T00:10:24.929Z,18.62
2023-02-03T00:11:25.801Z,18.61
2023-02-03T00:12:26.549Z,18.60
2023-02-03T00:13:28.341Z,18.57
2023-02-03T00:14:30.188Z,18.61
2023-02-03T00:15:32.016Z,18.61
2023-02-03T00:16:33.898Z,18.61
2023-02-03T00:17:35.710Z,18.61
2023-02-03T00:18:36.476Z,18.61
2023-02-03T00:19:37.982Z,18.61
2023-02-03T00:20:39.785Z,18.60
2023-02-03T00:21:40.542Z,18.60
2023-02-03T00:22:42.359Z,18.61
2023-02-03T00:23:44.165Z,18.61
2023-02-03T00:24:45.978Z,18.62
2023-02-03T00:25:47.765Z,18.61
2023-02-03T00:26:49.571Z,18.60
2023-02-03T00:27:50.393Z,18.57
2023-02-03T00:28:51.851Z,18.61
2023-02-03T00:29:53.679Z,18.60
2023-02-03T00:30:54.431Z,18.61
2023-02-03T00:31:56.401Z,18.61
2023-02-03T00:32:58.285Z,18.61
2023-02-03T00:34:00.108Z,18.61
2023-02-03T00:35:01.930Z,18.60
2023-02-03T00:36:02.688Z,18.60
2023-02-03T00:37:04.492Z,18.61
2023-02-03T00:38:06.299Z,18.62
2023-02-03T00:39:08.122Z,18.64
2023-02-03T00:40:09.954Z,18.67
2023-02-03T00:41:11.747Z,18.64
2023-02-03T00:42:12.490Z,18.62
2023-02-03T00:43:13.979Z,18.64
2023-02-03T00:44:15.795Z,18.64
2023-02-03T00:45:15.913Z,18.64
2023-02-03T00:46:17.846Z,18.62
2023-02-03T00:47:19.755Z,18.62
2023-02-03T00:48:21.778Z,18.64
2023-02-03T00:49:23.590Z,18.65
2023-02-03T00:50:24.804Z,18.64
2023-02-03T00:51:25.715Z,18.64
2023-02-03T00:52:27.528Z,18.64
2023-02-03T00:53:28.279Z,18.64
2023-02-03T00:54:32.039Z,18.62
2023-02-03T00:55:30.342Z,18.64
2023-02-03T00:56:32.128Z,18.65
2023-02-03T00:57:33.945Z,18.65
2023-02-03T00:58:35.744Z,18.62
2023-02-03T00:59:35.756Z,18.62
2023-02-03T01:00:37.750Z,18.64
2023-02-03T01:01:39.562Z,18.62
2023-02-03T01:02:40.448Z,18.61
2023-02-03T01:03:41.236Z,18.64
2023-02-03T01:04:41.579Z,18.64
2023-02-03T01:05:43.431Z,18.62
2023-02-03T01:06:45.144Z,18.60
2023-02-03T01:07:45.896Z,18.60
2023-02-03T01:08:47.403Z,18.64
2023-02-03T01:09:49.229Z,18.64
2023-02-03T01:10:49.996Z,18.62
2023-02-03T01:11:51.784Z,18.62
2023-02-03T01:12:53.593Z,18.62
2023-02-03T01:13:55.383Z,18.64
2023-02-03T01:14:56.132Z,18.62
2023-02-03T01:15:57.976Z,18.61
2023-02-03T01:16:59.850Z,18.57
2023-02-03T01:18:01.731Z,18.60
2023-02-03T01:19:03.543Z,18.57
2023-02-03T01:20:05.213Z,18.57
2023-02-03T01:21:07.037Z,18.57
2023-02-03T01:22:07.788Z,18.57
2023-02-03T01:23:09.375Z,18.56
2023-02-03T01:24:11.184Z,18.52
2023-02-03T01:25:13.013Z,18.53
2023-02-03T01:26:13.772Z,18.52
2023-02-03T01:27:15.597Z,18.54
2023-02-03T01:28:17.505Z,18.54
2023-02-03T01:29:19.319Z,18.57
2023-02-03T01:30:21.129Z,18.60
2023-02-03T01:31:23.169Z,18.57
2023-02-03T01:32:23.987Z,18.57
2023-02-03T01:33:24.770Z,18.57
2023-02-03T01:34:24.805Z,18.56
2023-02-03T01:35:26.654Z,18.56
2023-02-03T01:36:28.504Z,18.53
2023-02-03T01:37:30.310Z,18.52
2023-02-03T01:38:31.062Z,18.53
2023-02-03T01:39:32.868Z,18.54
2023-02-03T01:40:34.667Z,18.54
2023-02-03T01:41:36.493Z,18.54
2023-02-03T01:42:38.292Z,18.53
2023-02-03T01:43:39.046Z,18.57
2023-02-03T01:44:40.863Z,18.56
2023-02-03T01:45:42.705Z,18.60
2023-02-03T01:46:44.585Z,18.57
2023-02-03T01:47:46.394Z,18.57
2023-02-03T01:48:47.144Z,18.60
2023-02-03T01:49:48.953Z,18.60
2023-02-03T01:50:50.766Z,18.61
2023-02-03T01:51:52.613Z,18.62
2023-02-03T01:52:54.431Z,18.62
2023-02-03T01:53:55.181Z,18.61
2023-02-03T01:54:57.305Z,18.57
2023-02-03T01:55:56.995Z,18.61
2023-02-03T01:56:58.649Z,18.60
2023-02-03T01:58:00.471Z,18.56
2023-02-03T01:59:01.221Z,18.56
2023-02-03T02:00:03.033Z,18.56
2023-02-03T02:01:04.924Z,18.57
2023-02-03T02:02:06.832Z,18.57
2023-02-03T02:03:08.733Z,18.57
2023-02-03T02:04:09.517Z,18.56
2023-02-03T02:05:11.361Z,18.57
2023-02-03T02:06:13.154Z,18.56
2023-02-03T02:07:14.968Z,18.56
2023-02-03T02:08:15.755Z,18.56
2023-02-03T02:09:17.544Z,18.54
2023-02-03T02:10:19.371Z,18.60
2023-02-03T02:11:21.164Z,18.56
2023-02-03T02:12:22.988Z,18.54
2023-02-03T02:13:23.726Z,18.56
2023-02-03T02:14:25.535Z,18.56
2023-02-03T02:15:27.344Z,18.57
2023-02-03T02:16:29.138Z,18.60
2023-02-03T02:17:29.944Z,18.57
2023-02-03T02:18:31.746Z,18.61
2023-02-03T02:19:33.536Z,18.60
2023-02-03T02:20:35.352Z,18.61
2023-02-03T02:21:36.096Z,18.60
2023-02-03T02:22:37.919Z,18.56
2023-02-03T02:23:39.716Z,18.57
2023-02-03T02:24:41.515Z,18.57
2023-02-03T02:25:42.259Z,18.60
2023-02-03T02:26:44.078Z,18.57
2023-02-03T02:27:45.980Z,18.62
2023-02-03T02:28:47.801Z,18.61
2023-02-03T02:29:49.592Z,18.62
2023-02-03T02:30:50.489Z,18.60
2023-02-03T02:31:52.018Z,18.60
2023-02-03T02:32:52.046Z,18.60
2023-02-03T02:33:53.709Z,18.60
2023-02-03T02:34:55.523Z,18.60
2023-02-03T02:35:56.279Z,18.62
2023-02-03T02:36:58.086Z,18.61
2023-02-03T02:37:59.889Z,18.62
2023-02-03T02:39:01.933Z,18.65
2023-02-03T02:40:03.731Z,18.64
2023-02-03T02:41:05.550Z,18.62
2023-02-03T02:42:06.313Z,18.65
2023-02-03T02:43:08.121Z,18.64
2023-02-03T02:44:09.931Z,18.65
2023-02-03T02:45:11.739Z,18.62
2023-02-03T02:46:13.580Z,18.61
2023-02-03T02:47:15.391Z,18.61
2023-02-03T02:48:16.177Z,18.64
2023-02-03T02:49:18.008Z,18.62
2023-02-03T02:50:19.819Z,18.61
2023-02-03T02:51:21.649Z,18.61
2023-02-03T02:52:23.450Z,18.62
2023-02-03T02:53:25.309Z,18.61
2023-02-03T02:54:27.116Z,18.61
2023-02-03T02:55:28.006Z,18.57
2023-02-03T02:56:29.811Z,18.61
2023-02-03T02:57:31.614Z,18.65
2023-02-03T02:58:33.422Z,18.62
2023-02-03T02:59:35.235Z,18.62
2023-02-03T03:00:36.000Z,18.60
2023-02-03T03:01:36.804Z,18.57
2023-02-03T03:02:37.150Z,18.57
2023-02-03T03:03:39.061Z,18.60
2023-02-03T03:04:40.890Z,18.60
2023-02-03T03:05:42.756Z,18.61
2023-02-03T03:06:43.522Z,18.61
2023-02-03T03:07:45.326Z,18.61
2023-02-03T03:08:47.133Z,18.61
2023-02-03T03:09:48.931Z,18.61
2023-02-03T03:10:50.736Z,18.62
2023-02-03T03:11:52.548Z,18.62
2023-02-03T03:12:53.311Z,18.62
2023-02-03T03:13:55.118Z,18.57
2023-02-03T03:14:56.908Z,18.56
2023-02-03T03:15:58.835Z,18.60
2023-02-03T03:17:00.662Z,18.60
2023-02-03T03:18:02.467Z,18.60
2023-02-03T03:19:04.320Z,18.57
2023-02-03T03:20:06.124Z,18.60
2023-02-03T03:21:07.923Z,18.62
2023-02-03T03:22:08.667Z,18.62
2023-02-03T03:23:10.460Z,18.62
2023-02-03T03:24:12.285Z,18.64
2023-02-03T03:25:14.105Z,18.64
2023-02-03T03:26:15.896Z,18.61
2023-02-03T03:27:17.688Z,18.62
2023-02-03T03:28:19.537Z,18.62
2023-02-03T03:29:20.328Z,18.61
2023-02-03T03:30:22.126Z,18.61
2023-02-03T03:31:24.075Z,18.62
2023-02-03T03:32:25.974Z,18.60
2023-02-03T03:33:27.780Z,18.64
2023-02-03T03:34:29.639Z,18.61
2023-02-03T03:35:31.446Z,18.61
2023-02-03T03:36:33.256Z,18.62
2023-02-03T03:37:35.056Z,18.57
2023-02-03T03:38:35.805Z,18.54
2023-02-03T03:39:37.626Z,18.57
2023-02-03T03:40:39.434Z,18.57
2023-02-03T03:41:41.238Z,18.56
2023-02-03T03:42:43.034Z,18.57
2023-02-03T03:43:44.845Z,18.60
2023-02-03T03:44:46.676Z,18.60
2023-02-03T03:45:47.433Z,18.61
2023-02-03T03:46:49.287Z,18.60
2023-02-03T03:47:51.127Z,18.60
2023-02-03T03:48:52.929Z,18.60
2023-02-03T03:49:54.770Z,18.56
2023-02-03T03:50:56.571Z,18.57
2023-02-03T03:51:56.872Z,18.57
2023-02-03T03:52:58.711Z,18.57
2023-02-03T03:54:00.516Z,18.60
2023-02-03T03:55:01.296Z,18.60
2023-02-03T03:56:02.040Z,18.57
2023-02-03T03:57:02.446Z,18.62
2023-02-03T03:58:04.232Z,18.61
2023-02-03T03:59:06.040Z,18.61
2023-02-03T04:00:07.888Z,18.61
2023-02-03T04:01:08.732Z,18.62
2023-02-03T04:02:10.787Z,18.62
2023-02-03T04:03:11.759Z,18.64
2023-02-03T04:04:11.994Z,18.65
2023-02-03T04:05:13.828Z,18.64
2023-02-03T04:06:15.639Z,18.64
2023-02-03T04:07:16.406Z,18.61
2023-02-03T04:08:18.209Z,18.64
2023-02-03T04:09:20.007Z,18.61
2023-02-03T04:10:21.820Z,18.60
2023-02-03T04:11:23.635Z,18.64
2023-02-03T04:12:25.473Z,18.62
2023-02-03T04:13:26.226Z,18.61
2023-02-03T04:14:28.044Z,18.61
2023-02-03T04:15:29.865Z,18.62
2023-02-03T04:16:31.717Z,18.60
2023-02-03T04:17:33.550Z,18.57
2023-02-03T04:18:35.357Z,18.60
2023-02-03T04:19:36.124Z,18.60
2023-02-03T04:20:37.953Z,18.62
2023-02-03T04:21:40.009Z,18.61
2023-02-03T04:22:41.829Z,18.57
2023-02-03T04:23:43.649Z,18.57
2023-02-03T04:24:45.466Z,18.57
2023-02-03T04:25:47.280Z,18.57
2023-02-03T04:26:48.039Z,18.60
2023-02-03T04:27:49.883Z,18.60
2023-02-03T04:28:51.708Z,18.60
2023-02-03T04:29:53.512Z,18.57
2023-02-03T04:30:55.357Z,18.57
2023-02-03T04:31:57.277Z,18.61
2023-02-03T04:32:59.190Z,18.61
2023-02-03T04:33:59.923Z,18.56
2023-02-03T04:35:01.715Z,18.57
2023-02-03T04:36:03.556Z,18.60
2023-02-03T04:37:05.366Z,18.57
2023-02-03T04:38:07.171Z,18.60
2023-02-03T04:39:09.010Z,18.61
2023-02-03T04:40:09.765Z,18.60
2023-02-03T04:41:11.578Z,18.60
2023-02-03T04:42:13.390Z,18.60
2023-02-03T04:43:15.198Z,18.60
2023-02-03T04:44:17.007Z,18.60
2023-02-03T04:45:18.814Z,18.61
2023-02-03T04:46:19.574Z,18.60
2023-02-03T04:47:21.070Z,18.60
2023-02-03T04:48:22.873Z,18.60
2023-02-03T04:49:23.617Z,18.61
2023-02-03T04:50:25.578Z,18.60
2023-02-03T04:51:26.610Z,18.60
2023-02-03T04:52:27.381Z,18.61
2023-02-03T04:53:29.173Z,18.60
2023-02-03T04:54:30.983Z,18.60
2023-02-03T04:55:32.822Z,18.56
2023-02-03T04:56:34.677Z,18.56
2023-02-03T04:57:35.427Z,18.57
2023-02-03T04:58:37.233Z,18.60
2023-02-03T04:59:39.054Z,18.60
2023-02-03T05:00:40.881Z,18.57
2023-02-03T05:01:42.705Z,18.56
2023-02-03T05:02:44.504Z,18.54
2023-02-03T05:03:45.248Z,18.54
2023-02-03T05:04:47.058Z,18.54
2023-02-03T05:05:48.876Z,18.54
2023-02-03T05:06:50.783Z,18.56
2023-02-03T05:07:52.584Z,18.53
2023-02-03T05:08:54.427Z,18.53
2023-02-03T05:09:55.172Z,18.54
2023-02-03T05:10:56.969Z,18.53
2023-02-03T05:11:58.798Z,18.52
2023-02-03T05:13:00.639Z,18.53
2023-02-03T05:14:02.459Z,18.53
2023-02-03T05:15:04.300Z,18.50
2023-02-03T05:16:05.143Z,18.54
2023-02-03T05:17:06.561Z,18.52
2023-02-03T05:18:08.352Z,18.53
2023-02-03T05:19:09.310Z,18.54
2023-02-03T05:20:10.066Z,18.53
2023-02-03T05:21:10.366Z,18.53
2023-02-03T05:22:12.222Z,18.50
2023-02-03T05:23:14.041Z,18.56
2023-02-03T05:24:15.859Z,18.54
2023-02-03T05:25:17.675Z,18.52
2023-02-03T05:26:18.424Z,18.54
2023-02-03T05:27:20.265Z,18.53
2023-02-03T05:28:22.073Z,18.53
2023-02-03T05:29:23.886Z,18.54
2023-02-03T05:30:26.171Z,18.53
2023-02-03T05:31:26.233Z,18.52
2023-02-03T05:32:28.070Z,18.53
2023-02-03T05:33:29.889Z,18.53
2023-02-03T05:34:31.698Z,18.53
2023-02-03T05:35:33.505Z,18.52
2023-02-03T05:36:35.330Z,18.54
2023-02-03T05:37:36.136Z,18.52
2023-02-03T05:38:37.937Z,18.56
2023-02-03T05:39:39.744Z,18.54
2023-02-03T05:40:41.553Z,18.52
2023-02-03T05:41:43.354Z,18.54
2023-02-03T05:42:45.177Z,18.54
2023-02-03T05:43:46.992Z,18.54
2023-02-03T05:44:47.731Z,18.53
2023-02-03T05:45:49.616Z,18.56
2023-02-03T05:46:51.446Z,18.56
2023-02-03T05:47:53.257Z,18.54
2023-02-03T05:48:55.060Z,18.54
2023-02-03T05:49:56.881Z,18.53
2023-02-03T05:50:58.677Z,18.53
2023-02-03T05:51:59.423Z,18.54
2023-02-03T05:53:01.269Z,18.54
2023-02-03T05:54:03.068Z,18.54
2023-02-03T05:55:04.867Z,18.56
2023-02-03T05:56:06.679Z,18.54
2023-02-03T05:57:08.507Z,18.56
2023-02-03T05:58:09.296Z,18.56
2023-02-03T05:59:11.081Z,18.54
2023-02-03T06:00:12.890Z,18.56
2023-02-03T06:01:14.704Z,18.53
2023-02-03T06:02:16.514Z,18.54
2023-02-03T06:03:17.317Z,18.53
2023-02-03T06:04:19.213Z,18.56
2023-02-03T06:05:21.042Z,18.54
2023-02-03T06:06:22.849Z,18.57
2023-02-03T06:07:24.646Z,18.54
2023-02-03T06:08:26.490Z,18.53
2023-02-03T06:09:27.245Z,18.56
2023-02-03T06:10:29.421Z,18.56
2023-02-03T06:11:30.273Z,18.60
2023-02-03T06:12:31.021Z,18.61
2023-02-03T06:13:32.840Z,18.61
2023-02-03T06:14:34.707Z,18.65
2023-02-03T06:15:36.508Z,18.60
2023-02-03T06:16:38.436Z,18.67
2023-02-03T06:17:40.270Z,18.65
2023-02-03T06:18:41.038Z,18.68
2023-02-03T06:19:42.844Z,18.72
2023-02-03T06:20:44.640Z,18.71
2023-02-03T06:21:46.444Z,18.71
2023-02-03T06:22:48.363Z,18.69
2023-02-03T06:23:50.330Z,18.68
2023-02-03T06:24:51.101Z,18.68
2023-02-03T06:25:52.909Z,18.67
2023-02-03T06:26:54.714Z,18.65
2023-02-03T06:27:56.579Z,18.65
2023-02-03T06:28:58.444Z,18.65
2023-02-03T06:30:00.282Z,18.65
2023-02-03T06:31:01.152Z,18.67
2023-02-03T06:32:02.271Z,18.65
2023-02-03T06:33:02.268Z,18.62
2023-02-03T06:34:04.230Z,18.67
2023-02-03T06:35:06.031Z,18.65
2023-02-03T06:36:06.797Z,18.62
2023-02-03T06:37:08.604Z,18.67
2023-02-03T06:38:10.413Z,18.67
2023-02-03T06:39:12.258Z,18.68
2023-02-03T06:40:14.056Z,18.65
2023-02-03T06:41:15.850Z,18.65
2023-02-03T06:42:16.589Z,18.67
2023-02-03T06:43:18.400Z,18.64
2023-02-03T06:44:20.234Z,18.64
2023-02-03T06:45:22.041Z,18.65
2023-02-03T06:46:23.861Z,18.67
2023-02-03T06:47:25.700Z,18.67
2023-02-03T06:48:26.482Z,18.62
2023-02-03T06:49:27.950Z,18.60
2023-02-03T06:50:30.113Z,18.62
2023-02-03T06:51:29.960Z,18.62
2023-02-03T06:52:31.809Z,18.62
2023-02-03T06:53:33.604Z,18.65
2023-02-03T06:54:34.398Z,18.67
2023-02-03T06:55:36.193Z,18.65
2023-02-03T06:56:38.008Z,18.67
2023-02-03T06:57:39.353Z,18.67
2023-02-03T06:58:40.102Z,18.68
2023-02-03T06:59:42.158Z,18.64
2023-02-03T07:00:43.974Z,18.64
2023-02-03T07:01:45.856Z,18.67
2023-02-03T07:02:47.706Z,18.67
2023-02-03T07:03:49.554Z,18.67
2023-02-03T07:04:50.312Z,18.69
2023-02-03T07:05:52.119Z,18.71
2023-02-03T07:06:53.932Z,18.71
2023-02-03T07:07:55.788Z,18.69
2023-02-03T07:08:58.724Z,18.68
2023-02-03T07:09:59.253Z,18.72
2023-02-03T07:10:59.993Z,18.69
2023-02-03T07:12:01.797Z,18.69
2023-02-03T07:13:03.618Z,18.67
2023-02-03T07:14:05.428Z,18.68
2023-02-03T07:15:07.273Z,18.67
2023-02-03T07:16:09.201Z,18.67
2023-02-03T07:17:10.012Z,18.67
2023-02-03T07:18:13.097Z,18.68
2023-02-03T07:19:13.653Z,18.68
2023-02-03T07:20:15.473Z,18.68
2023-02-03T07:21:17.305Z,18.67
2023-02-03T07:22:19.108Z,18.67
2023-02-03T07:23:20.906Z,18.68
2023-02-03T07:24:21.649Z,18.67
2023-02-03T07:25:23.212Z,18.68
2023-02-03T07:26:25.021Z,18.65
2023-02-03T07:27:26.836Z,18.67
2023-02-03T07:28:27.591Z,18.68
2023-02-03T07:29:29.407Z,18.69
2023-02-03T07:30:31.568Z,18.67
2023-02-03T07:31:31.482Z,18.67
2023-02-03T07:32:33.960Z,18.67
2023-02-03T07:33:34.757Z,18.65
2023-02-03T07:34:36.551Z,18.62
2023-02-03T07:35:37.326Z,18.64
2023-02-03T07:36:39.132Z,18.65
2023-02-03T07:37:40.944Z,18.64
2023-02-03T07:38:42.756Z,18.62
2023-02-03T07:39:44.549Z,18.65
2023-02-03T07:40:46.395Z,18.67
2023-02-03T07:41:47.154Z,18.65
2023-02-03T07:42:48.950Z,18.65
2023-02-03T07:43:50.770Z,18.68
2023-02-03T07:44:52.587Z,18.67
2023-02-03T07:45:54.412Z,18.67
2023-02-03T07:46:56.315Z,18.69
2023-02-03T07:47:58.173Z,18.68
2023-02-03T07:48:58.923Z,18.67
2023-02-03T07:50:00.418Z,18.69
2023-02-03T07:51:02.245Z,18.67
2023-02-03T07:52:02.992Z,18.69
2023-02-03T07:53:04.731Z,18.74
2023-02-03T07:54:06.529Z,18.74
2023-02-03T07:55:08.325Z,18.69
2023-02-03T07:56:10.171Z,18.72
2023-02-03T07:57:11.981Z,18.75
2023-02-03T07:58:12.725Z,18.72
2023-02-03T07:59:14.534Z,18.79
2023-02-03T08:00:16.336Z,18.77
2023-02-03T08:01:18.168Z,18.75
2023-02-03T08:02:20.017Z,18.75
2023-02-03T08:03:20.774Z,18.82
2023-02-03T08:04:22.589Z,18.82
2023-02-03T08:05:24.399Z,18.83
2023-02-03T08:06:26.302Z,18.84
2023-02-03T08:07:28.105Z,18.83
2023-02-03T08:08:29.912Z,18.80
2023-02-03T08:09:30.687Z,18.83
2023-02-03T08:10:31.775Z,18.86
2023-02-03T08:11:32.026Z,18.84
2023-02-03T08:12:33.877Z,18.86
2023-02-03T08:13:35.687Z,18.82
2023-02-03T08:14:36.435Z,18.80
2023-02-03T08:15:38.214Z,18.83
2023-02-03T08:16:40.057Z,18.82
2023-02-03T08:17:41.861Z,18.82
2023-02-03T08:18:43.687Z,18.80
2023-02-03T08:19:44.433Z,18.80
2023-02-03T08:20:46.249Z,18.82
2023-02-03T08:21:48.072Z,18.82
2023-02-03T08:22:49.875Z,18.83
2023-02-03T08:23:51.707Z,18.82
2023-02-03T08:24:53.499Z,18.82
2023-02-03T08:25:54.262Z,18.82
2023-02-03T08:26:55.797Z,18.83
2023-02-03T08:27:57.669Z,18.82
2023-02-03T08:28:59.498Z,18.80
2023-02-03T08:30:00.246Z,18.80
2023-02-03T08:31:02.121Z,18.82
2023-02-03T08:32:05.408Z,18.82
2023-02-03T08:33:05.977Z,18.82
2023-02-03T08:34:07.781Z,18.82
2023-02-03T08:35:09.609Z,18.79
2023-02-03T08:36:11.456Z,18.82
2023-02-03T08:37:12.275Z,18.80
2023-02-03T08:38:14.070Z,18.80
2023-02-03T08:39:15.897Z,18.80
2023-02-03T08:40:17.702Z,18.80
2023-02-03T08:41:19.515Z,18.82
2023-02-03T08:42:21.388Z,18.82
2023-02-03T08:43:22.138Z,18.80
2023-02-03T08:44:23.109Z,18.83
2023-02-03T08:45:23.473Z,18.83
2023-02-03T08:46:25.252Z,18.84
2023-02-03T08:47:27.081Z,18.83
2023-02-03T08:48:28.884Z,18.84
2023-02-03T08:49:29.624Z,18.84
2023-02-03T08:50:31.826Z,18.82
2023-02-03T08:51:32.700Z,18.82
2023-02-03T08:52:33.464Z,18.83
2023-02-03T08:53:35.299Z,18.82
2023-02-03T08:54:37.119Z,18.80
2023-02-03T08:55:38.914Z,18.80
2023-02-03T08:56:40.720Z,18.82
2023-02-03T08:57:41.793Z,18.80
2023-02-03T08:58:42.601Z,18.82
2023-02-03T08:59:44.422Z,18.79
2023-02-03T09:00:45.224Z,18.80
2023-02-03T09:01:47.079Z,18.80
2023-02-03T09:02:48.918Z,18.82
2023-02-03T09:03:50.729Z,18.80
2023-02-03T09:04:52.719Z,18.82
2023-02-03T09:05:54.570Z,18.84
2023-02-03T09:06:56.369Z,18.83
2023-02-03T09:07:57.145Z,18.84
2023-02-03T09:08:58.942Z,18.84
2023-02-03T09:10:00.764Z,18.82
2023-02-03T09:11:02.578Z,18.84
2023-02-03T09:12:04.388Z,18.83
2023-02-03T09:13:06.444Z,18.83
2023-02-03T09:14:07.513Z,18.80
2023-02-03T09:15:08.268Z,18.80
2023-02-03T09:16:09.138Z,18.77
2023-02-03T09:17:11.031Z,18.79
2023-02-03T09:18:12.852Z,18.80
2023-02-03T09:19:14.654Z,18.77
2023-02-03T09:20:16.627Z,18.79
2023-02-03T09:21:33.572Z,18.77
2023-02-03T09:22:19.095Z,18.79
2023-02-03T09:23:20.928Z,18.74
2023-02-03T09:24:22.738Z,18.77
2023-02-03T09:25:24.543Z,18.77
2023-02-03T09:26:26.363Z,18.77
2023-02-03T09:27:27.143Z,18.74
2023-02-03T09:28:28.980Z,18.74
2023-02-03T09:29:30.794Z,18.79
2023-02-03T09:30:32.842Z,18.82
2023-02-03T09:31:32.660Z,18.82
2023-02-03T09:32:34.362Z,18.83
2023-02-03T09:33:36.249Z,18.83
2023-02-03T09:34:38.077Z,18.82
2023-02-03T09:35:38.843Z,18.83
2023-02-03T09:36:41.974Z,18.84
2023-02-03T09:37:42.699Z,18.82
2023-02-03T09:38:44.518Z,18.80
2023-02-03T09:39:46.406Z,18.80
2023-02-03T09:40:48.371Z,18.77
2023-02-03T09:41:50.188Z,18.75
2023-02-03T09:42:51.992Z,18.79
2023-02-03T09:43:53.836Z,18.80
2023-02-03T09:44:54.598Z,18.79
2023-02-03T09:45:55.382Z,18.80
2023-02-03T09:46:55.663Z,18.79
2023-02-03T09:47:57.388Z,18.79
2023-02-03T09:48:59.212Z,18.77
2023-02-03T09:50:01.146Z,18.77
2023-02-03T09:51:03.008Z,18.77
2023-02-03T09:52:03.751Z,18.79
2023-02-03T09:53:04.519Z,18.79
2023-02-03T09:54:04.911Z,18.80
2023-02-03T09:55:06.760Z,18.79
2023-02-03T09:56:08.570Z,18.80
2023-02-03T09:57:10.467Z,18.77
2023-02-03T09:58:11.249Z,18.79
2023-02-03T09:59:13.089Z,18.77
2023-02-03T10:00:14.908Z,18.80
2023-02-03T10:01:16.772Z,18.80
2023-02-03T10:02:18.932Z,18.80
2023-02-03T10:03:18.667Z,18.82
2023-02-03T10:04:20.311Z,18.82
2023-02-03T10:05:22.200Z,18.80
2023-02-03T10:06:24.041Z,18.80
2023-02-03T10:07:24.806Z,18.80
2023-02-03T10:08:25.651Z,18.82
2023-02-03T10:09:25.944Z,18.82
2023-02-03T10:10:28.003Z,18.83
2023-02-03T10:11:27.851Z,18.82
2023-02-03T10:12:29.497Z,18.82
2023-02-03T10:13:31.297Z,18.83
2023-02-03T10:14:32.102Z,18.82
2023-02-03T10:15:32.872Z,18.79
2023-02-03T10:16:33.254Z,18.79
2023-02-03T10:17:35.002Z,18.80
2023-02-03T10:18:36.792Z,18.82
2023-02-03T10:19:38.604Z,18.83
2023-02-03T10:20:39.357Z,18.82
2023-02-03T10:21:41.169Z,18.79
2023-02-03T10:22:42.970Z,18.79
2023-02-03T10:23:44.795Z,18.80
2023-02-03T10:24:46.625Z,18.82
2023-02-03T10:25:48.440Z,18.82
2023-02-03T10:26:50.254Z,18.82
2023-02-03T10:27:52.074Z,18.82
2023-02-03T10:28:52.832Z,18.83
2023-02-03T10:29:54.675Z,18.82
2023-02-03T10:30:56.633Z,18.82
2023-02-03T10:31:58.942Z,18.80
2023-02-03T10:32:59.757Z,18.80
2023-02-03T10:34:01.566Z,18.80
2023-02-03T10:35:02.337Z,18.82
2023-02-03T10:36:04.149Z,18.82
2023-02-03T10:37:06.015Z,18.79
2023-02-03T10:38:07.836Z,18.79
2023-02-03T10:39:09.636Z,18.79
2023-02-03T10:40:11.452Z,18.80
2023-02-03T10:41:11.726Z,18.86
2023-02-03T10:42:13.504Z,18.84
2023-02-03T10:43:15.323Z,18.86
2023-02-03T10:44:16.091Z,18.86
2023-02-03T10:45:18.075Z,18.86
2023-02-03T10:46:19.440Z,18.84
2023-02-03T10:47:21.271Z,18.84
2023-02-03T10:48:23.082Z,18.82
2023-02-03T10:49:23.837Z,18.82
2023-02-03T10:50:25.949Z,18.84
2023-02-03T10:51:26.902Z,18.84
2023-02-03T10:52:27.663Z,18.83
2023-02-03T10:53:29.495Z,18.83
2023-02-03T10:54:31.314Z,18.83
2023-02-03T10:55:33.166Z,18.82
2023-02-03T10:56:34.982Z,18.82
2023-02-03T10:57:37.027Z,18.83
2023-02-03T10:58:38.856Z,18.82
2023-02-03T10:59:40.710Z,18.83
2023-02-03T11:00:41.495Z,18.87
2023-02-03T11:01:43.327Z,18.84
2023-02-03T11:02:45.187Z,18.84
2023-02-03T11:03:47.005Z,18.83
2023-02-03T11:04:48.809Z,18.83
2023-02-03T11:05:50.667Z,18.83
2023-02-03T11:06:52.468Z,18.83
2023-02-03T11:07:53.221Z,18.86
2023-02-03T11:08:54.703Z,18.86
2023-02-03T11:09:56.504Z,18.89
2023-02-03T11:10:58.339Z,18.90
2023-02-03T11:11:59.079Z,18.90
2023-02-03T11:13:00.907Z,18.90
2023-02-03T11:14:02.732Z,18.92
2023-02-03T11:15:04.561Z,18.93
2023-02-03T11:16:06.635Z,18.98
2023-02-03T11:17:08.451Z,19.00
2023-02-03T11:18:10.275Z,18.98
2023-02-03T11:19:12.067Z,18.98
2023-02-03T11:20:12.697Z,18.98
2023-02-03T11:21:14.521Z,18.98
2023-02-03T11:22:16.310Z,18.98
2023-02-03T11:23:18.114Z,18.97
2023-02-03T11:24:19.918Z,19.00
2023-02-03T11:25:21.744Z,19.00
2023-02-03T11:26:23.562Z,19.00
2023-02-03T11:27:24.293Z,19.01
2023-02-03T11:28:26.081Z,19.01
2023-02-03T11:29:27.880Z,19.02
2023-02-03T11:30:29.940Z,19.02
2023-02-03T11:31:30.033Z,19.01
2023-02-03T11:32:31.508Z,19.01
2023-02-03T11:33:33.309Z,19.00
2023-02-03T11:34:35.116Z,19.02
2023-02-03T11:35:35.864Z,19.02
2023-02-03T11:36:37.691Z,19.07
2023-02-03T11:37:39.489Z,19.04
2023-02-03T11:38:41.302Z,19.04
2023-02-03T11:39:43.126Z,19.02
2023-02-03T11:40:44.922Z,19.02
2023-02-03T11:41:45.752Z,19.05
2023-02-03T11:42:46.516Z,19.07
2023-02-03T11:43:46.865Z,19.08
2023-02-03T11:44:48.685Z,19.04
2023-02-03T11:45:50.507Z,19.04
2023-02-03T11:46:52.421Z,19.01
2023-02-03T11:47:54.265Z,18.97
2023-02-03T11:48:55.021Z,18.94
2023-02-03T11:49:56.834Z,19.00
2023-02-03T11:50:58.626Z,19.00
2023-02-03T11:52:00.429Z,19.02
2023-02-03T11:53:02.242Z,19.12
2023-02-03T11:54:04.038Z,19.12
2023-02-03T11:55:04.806Z,19.12
2023-02-03T11:56:06.594Z,19.08
2023-02-03T11:57:08.444Z,19.04
2023-02-03T11:58:10.257Z,19.05
2023-02-03T11:59:12.067Z,19.04
2023-02-03T12:00:13.879Z,19.07
2023-02-03T12:01:15.688Z,19.08
2023-02-03T12:02:16.501Z,19.07
2023-02-03T12:03:18.404Z,19.07
2023-02-03T12:04:20.250Z,19.02
2023-02-03T12:05:22.091Z,19.01
2023-02-03T12:06:23.888Z,18.98
2023-02-03T12:07:25.734Z,19.00
2023-02-03T12:08:27.570Z,19.00
2023-02-03T12:09:28.346Z,19.00
2023-02-03T12:10:30.707Z,19.02
2023-02-03T12:11:31.651Z,19.01
2023-02-03T12:12:33.468Z,19.05
2023-02-03T12:13:35.265Z,19.04
2023-02-03T12:14:36.024Z,19.02
2023-02-03T12:15:37.843Z,19.00
2023-02-03T12:16:39.654Z,19.02
2023-02-03T12:17:41.511Z,19.07
2023-02-03T12:18:43.334Z,19.11
2023-02-03T12:19:45.140Z,19.08
2023-02-03T12:20:46.948Z,19.07
2023-02-03T12:21:47.829Z,19.07
2023-02-03T12:22:48.707Z,19.07
2023-02-03T12:23:49.026Z,19.05
2023-02-03T12:24:50.803Z,19.05
2023-02-03T12:25:52.631Z,19.07
2023-02-03T12:26:54.441Z,19.09
2023-02-03T12:27:55.285Z,19.08
2023-02-03T12:28:57.103Z,19.08
2023-02-03T12:29:58.564Z,19.08
2023-02-03T12:31:00.457Z,19.11
2023-02-03T12:32:02.446Z,19.09
2023-02-03T12:33:04.316Z,19.11
2023-02-03T12:34:06.122Z,19.09
2023-02-03T12:35:07.918Z,19.09
2023-02-03T12:36:08.669Z,19.07
2023-02-03T12:37:10.492Z,19.02
2023-02-03T12:38:12.320Z,19.07
2023-02-03T12:39:14.141Z,19.02
2023-02-03T12:40:16.117Z,19.04
2023-02-03T12:41:18.003Z,19.05
2023-02-03T12:42:20.049Z,19.05
2023-02-03T12:43:21.932Z,19.04
2023-02-03T12:44:23.746Z,19.05
2023-02-03T12:45:25.561Z,19.02
2023-02-03T12:46:26.354Z,19.02
2023-02-03T12:47:28.161Z,19.04
2023-02-03T12:48:30.018Z,19.00
2023-02-03T12:49:31.858Z,19.05
2023-02-03T12:50:33.698Z,19.05
2023-02-03T12:51:35.507Z,19.08
2023-02-03T12:52:37.324Z,19.07
2023-02-03T12:53:39.149Z,19.07
2023-02-03T12:54:40.974Z,19.08
2023-02-03T12:55:42.791Z,19.04
2023-02-03T12:56:43.544Z,19.04
2023-02-03T12:57:45.326Z,19.04
2023-02-03T12:58:47.147Z,19.05
2023-02-03T12:59:48.950Z,19.07
2023-02-03T13:00:50.811Z,19.08
2023-02-03T13:01:52.651Z,19.09
2023-02-03T13:02:54.471Z,19.09
2023-02-03T13:03:56.339Z,19.09
2023-02-03T13:04:58.157Z,19.11
2023-02-03T13:05:58.925Z,19.09
2023-02-03T13:07:00.745Z,19.08
2023-02-03T13:08:02.589Z,19.11
2023-02-03T13:09:04.978Z,19.07
2023-02-03T13:10:05.720Z,19.07
2023-02-03T13:11:06.500Z,19.08
2023-02-03T13:12:08.295Z,19.11